createdAt,value
2017-08-15T00:01:46.963Z,14.57
2017-08-15T00:04:14.471Z,11.70
2017-08-15T00:06:41.979Z,13.30
2017-08-15T00:09:09.579Z,13.10
2017-08-15T00:11:37.087Z,12.20
2017-08-15T00:14:04.598Z,12.93
2017-08-15T00:16:32.154Z,12.87
2017-08-15T00:18:59.659Z,13.93
2017-08-15T00:21:27.262Z,11.50
2017-08-15T00:23:55.066Z,14.90
2017-08-15T00:26:22.643Z,11.07
2017-08-15T00:28:50.215Z,11.70
2017-08-15T00:31:17.688Z,13.43
2017-08-15T00:33:45.234Z,11.97
2017-08-15T00:36:12.827Z,12.73
2017-08-15T00:38:40.627Z,12.30
2017-08-15T00:41:08.198Z,16.87
2017-08-15T00:43:35.698Z,17.87
2017-08-15T00:46:03.593Z,13.50
2017-08-15T00:48:31.099Z,17.83
2017-08-15T00:50:58.607Z,11.57
2017-08-15T00:53:26.177Z,25.93
2017-08-15T00:55:53.707Z,11.07
2017-08-15T00:58:21.231Z,12.57
2017-08-15T01:00:49.069Z,15.00
2017-08-15T01:03:16.570Z,14.50
2017-08-15T01:05:44.075Z,12.50
2017-08-15T01:08:11.665Z,19.53
2017-08-15T01:10:39.187Z,13.80
2017-08-15T01:13:06.746Z,13.60
2017-08-15T01:15:34.336Z,12.40
2017-08-15T01:18:01.861Z,13.10
2017-08-15T01:20:29.383Z,15.80
2017-08-15T01:22:57.187Z,16.70
2017-08-15T01:25:24.750Z,11.60
2017-08-15T01:27:52.294Z,12.77
2017-08-15T01:30:20.199Z,16.07
2017-08-15T01:32:47.706Z,15.77
2017-08-15T01:35:15.230Z,11.30
2017-08-15T01:37:49.175Z,15.60
2017-08-15T01:40:16.679Z,12.87
2017-08-15T01:42:44.185Z,11.50
2017-08-15T01:45:12.003Z,15.03
2017-08-15T01:47:39.522Z,22.23
2017-08-15T01:50:07.032Z,16.27
2017-08-15T01:52:34.847Z,14.27
2017-08-15T01:55:02.347Z,17.80
2017-08-15T01:57:29.863Z,15.03
2017-08-15T01:59:57.478Z,13.67
2017-08-15T02:02:25.016Z,13.53
2017-08-15T02:04:52.550Z,15.27
2017-08-15T02:07:20.295Z,12.03
2017-08-15T02:09:47.799Z,15.80
2017-08-15T02:12:15.415Z,19.20
2017-08-15T02:14:43.014Z,13.60
2017-08-15T02:17:10.543Z,16.80
2017-08-15T02:19:38.071Z,15.23
2017-08-15T02:22:05.874Z,16.13
2017-08-15T02:24:33.401Z,19.57
2017-08-15T02:27:00.915Z,20.50
2017-08-15T02:29:28.503Z,20.33
2017-08-15T02:34:34.719Z,15.80
2017-08-15T02:37:02.523Z,18.70
2017-08-15T02:39:30.135Z,13.73
2017-08-15T02:41:57.917Z,14.87
2017-08-15T02:44:25.447Z,15.30
2017-08-15T02:46:52.959Z,15.40
2017-08-15T02:49:20.554Z,14.80
2017-08-15T02:51:48.131Z,19.27
2017-08-15T02:54:15.674Z,14.83
2017-08-15T02:56:43.383Z,15.03
2017-08-15T02:59:10.894Z,18.13
2017-08-15T03:01:38.482Z,18.13
2017-08-15T03:04:06.204Z,16.80
2017-08-15T03:06:33.786Z,17.20
2017-08-15T03:09:01.335Z,20.13
2017-08-15T03:11:28.931Z,16.43
2017-08-15T03:13:56.435Z,15.53
2017-08-15T03:16:23.952Z,18.33
2017-08-15T03:18:51.793Z,18.40
2017-08-15T03:21:19.307Z,15.87
2017-08-15T03:23:46.820Z,15.40
2017-08-15T03:26:14.479Z,13.23
2017-08-15T03:28:41.986Z,13.40
2017-08-15T03:31:09.503Z,13.70
2017-08-15T03:33:37.054Z,17.87
2017-08-15T03:36:04.555Z,14.40
2017-08-15T03:38:32.167Z,11.83
2017-08-15T03:40:59.800Z,15.00
2017-08-15T03:43:27.335Z,13.07
2017-08-15T03:45:54.870Z,10.77
2017-08-15T03:48:22.431Z,11.40
2017-08-15T03:50:49.932Z,10.80
2017-08-15T03:53:17.441Z,11.17
2017-08-15T03:55:45.014Z,15.93
2017-08-15T03:58:12.611Z,12.80
2017-08-15T04:00:40.167Z,11.37
2017-08-15T04:03:08.007Z,13.97
2017-08-15T04:05:35.522Z,12.97
2017-08-15T04:08:03.046Z,19.63
2017-08-15T04:10:30.586Z,15.80
2017-08-15T04:12:58.448Z,21.23
2017-08-15T04:15:26.002Z,13.77
2017-08-15T04:17:53.919Z,18.50
2017-08-15T04:20:21.435Z,16.60
2017-08-15T04:22:48.960Z,15.43
2017-08-15T04:25:16.907Z,16.00
2017-08-15T04:27:44.423Z,10.87
2017-08-15T04:30:11.929Z,13.73
2017-08-15T04:32:39.515Z,12.37
2017-08-15T04:35:07.070Z,13.90
2017-08-15T04:37:34.696Z,16.97
2017-08-15T04:40:02.283Z,13.43
2017-08-15T04:42:29.873Z,14.33
2017-08-15T04:44:57.448Z,13.40
2017-08-15T04:47:25.142Z,15.63
2017-08-15T04:49:52.650Z,14.20
2017-08-15T04:52:20.157Z,13.43
2017-08-15T04:54:47.991Z,15.43
2017-08-15T04:57:15.526Z,13.80
2017-08-15T04:59:43.031Z,11.60
2017-08-15T05:02:10.719Z,11.07
2017-08-15T05:04:38.220Z,10.57
2017-08-15T05:07:05.947Z,10.93
2017-08-15T05:09:33.323Z,9.80
2017-08-15T05:12:00.851Z,13.47
2017-08-15T05:14:28.361Z,10.57
2017-08-15T05:16:55.950Z,13.43
2017-08-15T05:19:23.895Z,12.83
2017-08-15T05:21:51.478Z,15.77
2017-08-15T05:24:19.087Z,10.53
2017-08-15T05:26:46.595Z,12.57
2017-08-15T05:29:14.107Z,9.83
2017-08-15T05:31:41.911Z,10.87
2017-08-15T05:34:09.423Z,10.03
2017-08-15T05:36:36.919Z,9.63
2017-08-15T05:39:04.897Z,10.17
2017-08-15T05:41:32.400Z,14.07
2017-08-15T05:43:59.910Z,11.33
2017-08-15T05:46:27.470Z,9.47
2017-08-15T05:48:56.042Z,8.07
2017-08-15T05:51:23.573Z,10.00
2017-08-15T05:53:51.511Z,16.53
2017-08-15T05:56:18.866Z,9.53
2017-08-15T05:58:46.381Z,11.67
2017-08-15T06:01:13.895Z,7.80
2017-08-15T06:03:41.703Z,12.43
2017-08-15T06:06:09.204Z,8.93
2017-08-15T06:08:36.720Z,9.30
2017-08-15T06:11:04.750Z,10.53
2017-08-15T06:13:32.251Z,9.20
2017-08-15T06:15:59.755Z,9.30
2017-08-15T06:18:27.311Z,9.10
2017-08-15T06:20:55.065Z,7.80
2017-08-15T06:23:22.647Z,11.17
2017-08-15T06:25:50.492Z,9.77
2017-08-15T06:28:17.917Z,7.67
2017-08-15T06:30:45.422Z,8.60
2017-08-15T06:33:13.186Z,10.50
2017-08-15T06:35:40.964Z,8.83
2017-08-15T06:38:08.567Z,7.90
2017-08-15T06:40:36.376Z,10.20
2017-08-15T06:43:04.887Z,7.67
2017-08-15T06:45:32.478Z,9.40
2017-08-15T06:48:00.095Z,10.47
2017-08-15T06:50:27.995Z,9.00
2017-08-15T06:52:55.697Z,10.90
2017-08-15T06:55:23.247Z,13.40
2017-08-15T06:57:51.639Z,13.37
2017-08-15T07:00:19.178Z,8.57
2017-08-15T07:02:46.687Z,10.03
2017-08-15T07:05:14.583Z,9.30
2017-08-15T07:07:42.110Z,8.37
2017-08-15T07:10:09.616Z,10.37
2017-08-15T07:12:37.434Z,12.23
2017-08-15T07:15:04.973Z,12.43
2017-08-15T07:17:32.472Z,10.30
2017-08-15T07:20:00.283Z,8.00
2017-08-15T07:22:27.795Z,6.80
2017-08-15T07:24:55.308Z,12.37
2017-08-15T07:27:22.921Z,12.97
2017-08-15T07:29:50.186Z,9.27
2017-08-15T07:32:17.688Z,11.50
2017-08-15T07:34:45.264Z,7.47
2017-08-15T07:37:12.905Z,9.37
2017-08-15T07:39:40.643Z,7.43
2017-08-15T07:42:08.679Z,8.53
2017-08-15T07:44:36.394Z,9.13
2017-08-15T07:47:03.908Z,11.60
2017-08-15T07:49:31.536Z,8.50
2017-08-15T07:51:59.183Z,12.80
2017-08-15T07:54:26.719Z,7.00
2017-08-15T07:56:54.510Z,9.83
2017-08-15T07:59:22.016Z,9.63
2017-08-15T08:01:49.614Z,7.60
2017-08-15T08:04:17.416Z,6.70
2017-08-15T08:06:45.157Z,11.47
2017-08-15T08:09:12.661Z,8.73
2017-08-15T08:11:40.507Z,12.27
2017-08-15T08:14:08.006Z,10.43
2017-08-15T08:16:35.724Z,6.10
2017-08-15T08:19:03.363Z,7.20
2017-08-15T08:21:30.871Z,6.93
2017-08-15T08:23:58.371Z,6.73
2017-08-15T08:26:25.983Z,6.37
2017-08-15T08:28:53.492Z,6.87
2017-08-15T08:31:21.060Z,8.17
2017-08-15T08:33:48.912Z,6.37
2017-08-15T08:36:16.461Z,9.10
2017-08-15T08:38:43.963Z,9.80
2017-08-15T08:41:11.663Z,9.47
2017-08-15T08:43:39.163Z,8.27
2017-08-15T08:46:06.832Z,9.60
2017-08-15T08:48:34.684Z,7.67
2017-08-15T08:51:02.326Z,7.17
2017-08-15T08:53:29.835Z,7.97
2017-08-15T08:55:57.587Z,8.63
2017-08-15T08:58:25.155Z,5.80
2017-08-15T09:00:52.667Z,6.80
2017-08-15T09:03:20.486Z,6.93
2017-08-15T09:05:47.992Z,6.57
2017-08-15T09:08:15.580Z,5.73
2017-08-15T09:10:43.144Z,6.63
2017-08-15T09:13:10.660Z,8.27
2017-08-15T09:15:38.161Z,5.67
2017-08-15T09:18:05.752Z,5.77
2017-08-15T09:20:33.287Z,9.73
2017-08-15T09:23:00.804Z,7.00
2017-08-15T09:25:28.338Z,8.60
2017-08-15T09:27:55.847Z,5.63
2017-08-15T09:30:23.380Z,6.00
2017-08-15T09:32:50.690Z,8.50
2017-08-15T09:35:18.190Z,6.40
2017-08-15T09:37:45.693Z,5.50
2017-08-15T09:40:13.283Z,6.07
2017-08-15T09:42:40.802Z,5.87
2017-08-15T09:45:08.307Z,5.43
2017-08-15T09:47:35.869Z,9.87
2017-08-15T09:50:03.388Z,5.80
2017-08-15T09:52:30.888Z,5.60
2017-08-15T09:54:58.529Z,6.07
2017-08-15T09:57:26.051Z,7.10
2017-08-15T09:59:53.546Z,6.13
2017-08-15T10:02:21.103Z,5.37
2017-08-15T10:04:48.643Z,6.20
2017-08-15T10:07:16.226Z,6.03
2017-08-15T10:09:44.330Z,10.70
2017-08-15T10:12:11.878Z,8.87
2017-08-15T10:14:39.406Z,6.17
2017-08-15T10:17:06.978Z,6.10
2017-08-15T10:19:34.479Z,7.60
2017-08-15T10:22:01.984Z,9.27
2017-08-15T10:24:29.539Z,7.60
2017-08-15T10:26:57.046Z,6.70
2017-08-15T10:29:24.575Z,7.40
2017-08-15T10:31:52.134Z,6.13
2017-08-15T10:34:19.684Z,6.97
2017-08-15T10:36:47.178Z,5.97
2017-08-15T10:39:14.774Z,6.43
2017-08-15T10:41:42.274Z,6.77
2017-08-15T10:44:09.786Z,6.03
2017-08-15T10:46:37.334Z,6.10
2017-08-15T10:49:04.827Z,6.00
2017-08-15T10:51:32.330Z,7.70
2017-08-15T10:53:59.899Z,8.30
2017-08-15T10:56:27.448Z,5.90
2017-08-15T10:58:54.946Z,7.23
2017-08-15T11:01:22.491Z,6.10
2017-08-15T11:03:50.028Z,7.13
2017-08-15T11:06:17.558Z,6.50
2017-08-15T11:08:45.151Z,7.53
2017-08-15T11:11:12.646Z,6.87
2017-08-15T11:13:40.148Z,6.53
2017-08-15T11:16:08.274Z,7.07
2017-08-15T11:18:35.774Z,5.40
2017-08-15T11:21:03.294Z,6.20
2017-08-15T11:23:30.928Z,5.47
2017-08-15T11:25:58.424Z,5.17
2017-08-15T11:28:26.015Z,9.50
2017-08-15T11:30:53.574Z,5.93
2017-08-15T11:33:22.132Z,5.83
2017-08-15T11:35:49.667Z,7.30
2017-08-15T11:38:17.203Z,5.53
2017-08-15T11:40:44.703Z,5.77
2017-08-15T11:43:12.260Z,7.73
2017-08-15T11:45:40.046Z,6.30
2017-08-15T11:48:07.552Z,5.30
2017-08-15T11:50:35.172Z,14.17
2017-08-15T11:53:02.960Z,5.27
2017-08-15T11:55:30.520Z,6.00
2017-08-15T11:57:58.060Z,6.10
2017-08-15T12:00:25.940Z,7.07
2017-08-15T12:02:53.441Z,5.27
2017-08-15T12:05:20.945Z,5.37
2017-08-15T12:07:48.499Z,5.20
2017-08-15T12:10:16.059Z,5.13
2017-08-15T12:12:43.580Z,4.90
2017-08-15T12:15:11.545Z,8.47
2017-08-15T12:17:39.052Z,6.03
2017-08-15T12:20:06.564Z,7.13
2017-08-15T12:22:34.151Z,8.07
2017-08-15T12:25:01.672Z,6.23
2017-08-15T12:27:29.204Z,4.97
2017-08-15T12:29:56.767Z,5.40
2017-08-15T12:32:24.390Z,11.80
2017-08-15T12:34:51.898Z,5.57
2017-08-15T12:37:19.457Z,4.80
2017-08-15T12:39:47.570Z,7.20
2017-08-15T12:42:15.117Z,5.67
2017-08-15T12:44:42.692Z,4.70
2017-08-15T12:47:10.187Z,8.20
2017-08-15T12:49:37.687Z,5.53
2017-08-15T12:52:05.270Z,5.60
2017-08-15T12:54:32.779Z,6.10
2017-08-15T12:57:00.689Z,5.50
2017-08-15T12:59:28.211Z,7.57
2017-08-15T13:01:55.712Z,9.53
2017-08-15T13:04:23.260Z,6.63
2017-08-15T13:06:50.756Z,5.27
2017-08-15T13:09:18.250Z,5.57
2017-08-15T13:11:45.815Z,7.20
2017-08-15T13:14:13.363Z,6.10
2017-08-15T13:16:40.876Z,10.07
2017-08-15T13:19:08.664Z,12.13
2017-08-15T13:21:36.163Z,12.60
2017-08-15T13:24:03.658Z,11.27
2017-08-15T13:26:31.551Z,21.80
2017-08-15T13:28:59.054Z,15.10
2017-08-15T13:31:26.649Z,12.50
2017-08-15T13:33:54.200Z,10.93
2017-08-15T13:36:21.727Z,10.77
2017-08-15T13:38:49.241Z,10.10
2017-08-15T13:41:16.784Z,9.10
2017-08-15T13:43:44.325Z,12.90
2017-08-15T13:46:11.852Z,9.23
2017-08-15T13:48:39.439Z,12.27
2017-08-15T13:51:06.966Z,14.17
2017-08-15T13:53:34.591Z,9.70
2017-08-15T13:56:02.486Z,9.60
2017-08-15T13:58:29.752Z,10.70
2017-08-15T14:00:57.255Z,9.37
2017-08-15T14:03:24.836Z,6.30
2017-08-15T14:05:52.338Z,8.07
2017-08-15T14:08:19.871Z,8.00
2017-08-15T14:10:47.662Z,7.50
2017-08-15T14:13:15.167Z,7.43
2017-08-15T14:15:42.707Z,7.20
2017-08-15T14:18:10.489Z,8.50
2017-08-15T14:20:37.996Z,7.83
2017-08-15T14:23:05.523Z,7.80
2017-08-15T14:25:33.351Z,10.33
2017-08-15T14:28:00.863Z,8.70
2017-08-15T14:30:28.397Z,8.07
2017-08-15T14:32:56.211Z,8.20
2017-08-15T14:35:23.475Z,10.60
2017-08-15T14:37:50.991Z,6.87
2017-08-15T14:40:18.535Z,8.17
2017-08-15T14:42:46.031Z,8.03
2017-08-15T14:45:13.651Z,7.60
2017-08-15T14:47:41.110Z,6.93
2017-08-15T14:50:08.617Z,6.60
2017-08-15T14:52:36.132Z,7.60
2017-08-15T14:55:03.940Z,12.47
2017-08-15T14:57:31.439Z,8.00
2017-08-15T14:59:58.947Z,8.97
2017-08-15T15:02:26.548Z,7.60
2017-08-15T15:04:54.133Z,10.30
2017-08-15T15:07:21.635Z,7.30
2017-08-15T15:09:49.255Z,8.47
2017-08-15T15:12:16.749Z,9.20
2017-08-15T15:14:44.268Z,9.53
2017-08-15T15:17:11.977Z,9.70
2017-08-15T15:19:39.551Z,11.37
2017-08-15T15:22:07.056Z,8.03
2017-08-15T15:24:34.911Z,9.10
2017-08-15T15:27:02.427Z,9.20
2017-08-15T15:29:29.932Z,7.87
2017-08-15T15:31:58.033Z,15.23
2017-08-15T15:34:25.838Z,8.00
2017-08-15T15:36:53.369Z,7.80
2017-08-15T15:39:21.194Z,10.10
2017-08-15T15:41:48.702Z,11.13
2017-08-15T15:44:16.209Z,9.87
2017-08-15T15:46:43.748Z,7.60
2017-08-15T15:49:11.378Z,11.70
2017-08-15T15:51:38.932Z,8.50
2017-08-15T15:54:06.464Z,9.00
2017-08-15T15:56:33.985Z,10.37
2017-08-15T15:59:01.543Z,9.83
2017-08-15T16:01:28.819Z,9.10
2017-08-15T16:03:56.419Z,10.80
2017-08-15T16:06:24.066Z,9.00
2017-08-15T16:08:51.616Z,11.80
2017-08-15T16:11:19.131Z,10.93
2017-08-15T16:13:47.694Z,11.80
2017-08-15T16:16:15.209Z,9.40
2017-08-15T16:18:43.095Z,11.53
2017-08-15T16:21:10.703Z,8.97
2017-08-15T16:23:38.688Z,8.90
2017-08-15T16:26:06.520Z,9.13
2017-08-15T16:28:34.102Z,14.50
2017-08-15T16:31:01.911Z,16.63
2017-08-15T16:33:29.435Z,15.10
2017-08-15T16:35:57.219Z,9.43
2017-08-15T16:38:24.739Z,12.27
2017-08-15T16:40:52.251Z,10.73
2017-08-15T16:43:19.808Z,10.00
2017-08-15T16:45:47.314Z,14.30
2017-08-15T16:48:14.852Z,14.73
2017-08-15T16:50:43.051Z,12.37
2017-08-15T16:53:10.574Z,14.03
2017-08-15T16:55:38.106Z,12.23
2017-08-15T16:58:06.219Z,11.53
2017-08-15T17:00:33.862Z,12.03
2017-08-15T17:03:01.843Z,11.50
2017-08-15T17:05:29.399Z,16.20
2017-08-15T17:07:56.916Z,8.70
2017-08-15T17:10:24.835Z,10.77
2017-08-15T17:12:52.414Z,11.17
2017-08-15T17:15:20.232Z,9.60
2017-08-15T17:17:47.743Z,12.50
2017-08-15T17:20:15.292Z,13.77
2017-08-15T17:22:43.016Z,13.50
2017-08-15T17:25:11.494Z,12.50
2017-08-15T17:27:39.156Z,10.67
2017-08-15T17:30:06.699Z,12.30
2017-08-15T17:32:34.502Z,14.57
2017-08-15T17:35:02.016Z,11.77
2017-08-15T17:37:29.849Z,14.57
2017-08-15T17:39:57.360Z,16.13
2017-08-15T17:42:24.891Z,19.30
2017-08-15T17:44:52.442Z,11.50
2017-08-15T17:47:19.949Z,13.83
2017-08-15T17:49:47.455Z,13.30
2017-08-15T17:52:15.015Z,14.67
2017-08-15T17:54:43.275Z,13.77
2017-08-15T17:57:10.883Z,14.03
2017-08-15T17:59:38.426Z,14.13
2017-08-15T18:02:05.935Z,24.30
2017-08-15T18:04:33.456Z,20.50
2017-08-15T18:07:01.131Z,19.27
2017-08-15T18:09:28.755Z,30.63
2017-08-15T18:11:56.264Z,17.10
2017-08-15T18:14:23.815Z,48.23
2017-08-15T18:16:51.322Z,35.67
2017-08-15T18:19:18.883Z,23.50
2017-08-15T18:21:46.470Z,20.33
2017-08-15T18:24:14.580Z,32.73
2017-08-15T18:26:42.108Z,22.50
2017-08-15T18:29:10.002Z,18.87
2017-08-15T18:31:37.511Z,29.03
2017-08-15T18:34:05.027Z,32.60
2017-08-15T18:36:32.596Z,28.13
2017-08-15T18:39:00.259Z,23.77
2017-08-15T18:41:27.773Z,23.53
2017-08-15T18:43:55.396Z,22.53
2017-08-15T18:46:22.956Z,18.27
2017-08-15T18:48:50.498Z,23.30
2017-08-15T18:51:18.499Z,18.93
2017-08-15T18:53:46.215Z,23.97
2017-08-15T18:56:13.758Z,18.03
2017-08-15T18:58:41.331Z,18.13
2017-08-15T19:01:08.844Z,20.07
2017-08-15T19:03:36.439Z,25.57
2017-08-15T19:06:04.341Z,19.60
2017-08-15T19:08:31.985Z,16.37
2017-08-15T19:10:59.503Z,16.73
2017-08-15T19:13:27.052Z,17.87
2017-08-15T19:15:56.318Z,13.47
2017-08-15T19:18:24.547Z,14.93
2017-08-15T19:20:52.120Z,15.50
2017-08-15T19:23:19.679Z,20.20
2017-08-15T19:25:47.195Z,16.23
2017-08-15T19:28:14.747Z,17.63
2017-08-15T19:30:42.263Z,16.07
2017-08-15T19:33:09.876Z,15.93
2017-08-15T19:35:37.461Z,15.90
2017-08-15T19:38:04.972Z,20.50
2017-08-15T19:40:32.523Z,18.27
2017-08-15T19:43:00.314Z,17.20
2017-08-15T19:45:27.835Z,14.17
2017-08-15T19:47:55.352Z,16.03
2017-08-15T19:50:23.267Z,17.97
2017-08-15T19:52:50.870Z,15.70
2017-08-15T19:55:18.387Z,19.87
2017-08-15T19:57:45.922Z,17.83
2017-08-15T20:00:14.040Z,18.40
2017-08-15T20:02:41.932Z,17.20
2017-08-15T20:05:09.499Z,16.53
2017-08-15T20:07:37.016Z,14.17
2017-08-15T20:10:04.820Z,14.00
2017-08-15T20:12:32.330Z,16.97
2017-08-15T20:14:59.933Z,19.80
2017-08-15T20:17:27.538Z,19.10
2017-08-15T20:19:55.096Z,22.57
2017-08-15T20:22:22.656Z,13.83
2017-08-15T20:24:50.276Z,15.07
2017-08-15T20:27:17.788Z,17.90
2017-08-15T20:29:45.328Z,15.87
2017-08-15T20:32:13.171Z,21.70
2017-08-15T20:34:40.653Z,19.63
2017-08-15T20:37:08.144Z,18.67
2017-08-15T20:39:36.127Z,11.93
2017-08-15T20:42:03.674Z,12.90
2017-08-15T20:44:31.156Z,12.87
2017-08-15T20:46:58.889Z,21.27
2017-08-15T20:49:26.517Z,13.90
2017-08-15T20:51:54.240Z,14.80
2017-08-15T20:54:22.016Z,17.33
2017-08-15T20:56:49.624Z,15.00
2017-08-15T20:59:17.348Z,15.87
2017-08-15T21:01:44.868Z,27.53
2017-08-15T21:04:12.397Z,21.67
2017-08-15T21:06:40.323Z,18.77
2017-08-15T21:09:08.222Z,25.23
2017-08-15T21:11:35.796Z,18.93
2017-08-15T21:14:03.299Z,21.40
2017-08-15T21:16:31.100Z,17.47
2017-08-15T21:18:58.648Z,23.50
2017-08-15T21:21:26.443Z,21.00
2017-08-15T21:23:53.964Z,22.37
2017-08-15T21:26:22.055Z,21.33
2017-08-15T21:28:49.671Z,17.70
2017-08-15T21:31:18.135Z,21.07
2017-08-15T21:33:46.072Z,22.43
2017-08-15T21:36:13.560Z,23.67
2017-08-15T21:38:41.797Z,18.80
2017-08-15T21:41:09.279Z,20.00
2017-08-15T21:43:36.755Z,19.40
2017-08-15T21:46:04.643Z,19.40
2017-08-15T21:48:32.132Z,19.13
2017-08-15T21:50:59.617Z,19.53
2017-08-15T21:53:27.176Z,20.00
2017-08-15T21:55:54.688Z,19.00
2017-08-15T21:58:22.258Z,21.60
2017-08-15T22:00:55.507Z,27.20
2017-08-15T22:03:23.820Z,19.67
2017-08-15T22:05:51.351Z,19.50
2017-08-15T22:08:18.945Z,21.60
2017-08-15T22:10:46.583Z,18.73
2017-08-15T22:13:14.285Z,17.67
2017-08-15T22:15:41.879Z,22.70
2017-08-15T22:18:09.412Z,18.20
2017-08-15T22:20:36.927Z,14.70
2017-08-15T22:23:04.844Z,20.60
2017-08-15T22:25:32.384Z,19.77
2017-08-15T22:28:00.648Z,18.73
2017-08-15T22:30:28.248Z,19.70
2017-08-15T22:32:55.767Z,17.93
2017-08-15T22:35:23.283Z,21.80
2017-08-15T22:37:52.760Z,27.33
2017-08-15T22:40:20.307Z,21.50
2017-08-15T22:42:47.828Z,23.10
2017-08-15T22:45:15.627Z,19.47
2017-08-15T22:47:43.303Z,17.13
2017-08-15T22:50:10.806Z,22.10
2017-08-15T22:52:38.401Z,18.67
2017-08-15T22:55:05.959Z,22.27
2017-08-15T22:57:33.516Z,20.73
2017-08-15T23:00:01.080Z,21.67
2017-08-15T23:02:28.594Z,25.30
2017-08-15T23:04:56.099Z,26.07
2017-08-15T23:07:23.847Z,20.87
2017-08-15T23:09:51.351Z,16.77
2017-08-15T23:12:18.950Z,18.43
2017-08-15T23:14:46.515Z,20.73
2017-08-15T23:17:14.034Z,17.80
2017-08-15T23:19:41.554Z,16.83
2017-08-15T23:22:09.346Z,19.47
2017-08-15T23:24:36.859Z,16.20
2017-08-15T23:27:04.569Z,19.07
2017-08-15T23:29:32.131Z,19.27
2017-08-15T23:31:59.639Z,13.83
2017-08-15T23:34:27.141Z,12.40
2017-08-15T23:36:54.699Z,11.83
2017-08-15T23:39:22.303Z,14.20
2017-08-15T23:41:49.824Z,11.20
2017-08-15T23:44:17.382Z,22.87
2017-08-15T23:46:44.902Z,15.37
2017-08-15T23:49:12.453Z,13.87
2017-08-15T23:51:40.039Z,11.93
2017-08-15T23:54:07.560Z,10.60
2017-08-15T23:56:35.068Z,10.03
2017-08-15T23:59:02.619Z,13.53
